sensor_id;sensor_type;location;lat;lon;timestamp;pressure;altitude;pressure_sealevel;temperature;humidity
18569;BME280;14780;48.316;-1.050;2022-07-15T00:00:28;99802.09;;;24.18;35.52
18569;BME280;14780;48.316;-1.050;2022-07-15T00:03:13;99800.13;;;24.13;35.68
18569;BME280;14780;48.316;-1.050;2022-07-15T00:05:58;99800.31;;;24.07;35.84
18569;BME280;14780;48.316;-1.050;2022-07-15T00:08:42;99792.59;;;23.99;35.96
18569;BME280;14780;48.316;-1.050;2022-07-15T00:11:27;99800.41;;;23.90;36.08
18569;BME280;14780;48.316;-1.050;2022-07-15T00:14:12;99799.84;;;23.88;36.16
18569;BME280;14780;48.316;-1.050;2022-07-15T00:16:56;99805.41;;;23.77;36.46
18569;BME280;14780;48.316;-1.050;2022-07-15T00:19:42;99810.56;;;23.73;36.37
18569;BME280;14780;48.316;-1.050;2022-07-15T00:22:26;99799.56;;;23.68;36.52
18569;BME280;14780;48.316;-1.050;2022-07-15T00:25:12;99813.16;;;23.63;36.65
18569;BME280;14780;48.316;-1.050;2022-07-15T00:28:05;99811.00;;;23.65;36.59
18569;BME280;14780;48.316;-1.050;2022-07-15T00:30:50;99808.44;;;23.59;36.66
18569;BME280;14780;48.316;-1.050;2022-07-15T00:33:35;99806.97;;;23.51;36.86
18569;BME280;14780;48.316;-1.050;2022-07-15T00:36:20;99804.56;;;23.55;36.74
18569;BME280;14780;48.316;-1.050;2022-07-15T00:39:05;99805.00;;;23.47;37.05
18569;BME280;14780;48.316;-1.050;2022-07-15T00:41:50;99808.56;;;23.47;36.95
18569;BME280;14780;48.316;-1.050;2022-07-15T00:44:35;99801.19;;;23.48;36.92
18569;BME280;14780;48.316;-1.050;2022-07-15T00:47:19;99802.03;;;23.48;37.04
18569;BME280;14780;48.316;-1.050;2022-07-15T00:50:04;99802.53;;;23.45;37.07
18569;BME280;14780;48.316;-1.050;2022-07-15T00:53:18;99796.13;;;23.56;36.99
18569;BME280;14780;48.316;-1.050;2022-07-15T00:56:03;99789.88;;;23.39;37.21
18569;BME280;14780;48.316;-1.050;2022-07-15T00:58:49;99786.06;;;23.40;37.23
18569;BME280;14780;48.316;-1.050;2022-07-15T01:01:36;99796.50;;;23.43;37.23
18569;BME280;14780;48.316;-1.050;2022-07-15T01:04:22;99800.34;;;23.47;37.25
18569;BME280;14780;48.316;-1.050;2022-07-15T01:07:08;99800.88;;;23.44;37.22
18569;BME280;14780;48.316;-1.050;2022-07-15T01:09:52;99798.66;;;23.42;37.37
18569;BME280;14780;48.316;-1.050;2022-07-15T01:12:37;99803.59;;;23.44;37.31
18569;BME280;14780;48.316;-1.050;2022-07-15T01:15:24;99809.00;;;23.39;37.54
18569;BME280;14780;48.316;-1.050;2022-07-15T01:18:10;99826.22;;;23.40;37.43
18569;BME280;14780;48.316;-1.050;2022-07-15T01:20:54;99836.56;;;23.38;37.48
18569;BME280;14780;48.316;-1.050;2022-07-15T01:23:39;99838.13;;;23.34;37.55
18569;BME280;14780;48.316;-1.050;2022-07-15T01:26:27;99828.53;;;23.32;37.75
18569;BME280;14780;48.316;-1.050;2022-07-15T01:29:12;99822.00;;;23.33;37.56
18569;BME280;14780;48.316;-1.050;2022-07-15T01:31:56;99806.69;;;23.32;37.58
18569;BME280;14780;48.316;-1.050;2022-07-15T01:34:41;99799.06;;;23.33;37.67
18569;BME280;14780;48.316;-1.050;2022-07-15T01:37:26;99788.97;;;23.34;37.68
18569;BME280;14780;48.316;-1.050;2022-07-15T01:40:11;99773.44;;;23.35;37.65
18569;BME280;14780;48.316;-1.050;2022-07-15T01:42:55;99769.03;;;23.33;37.66
18569;BME280;14780;48.316;-1.050;2022-07-15T01:45:44;99764.16;;;23.36;37.64
18569;BME280;14780;48.316;-1.050;2022-07-15T01:48:29;99768.78;;;23.35;37.61
18569;BME280;14780;48.316;-1.050;2022-07-15T01:51:33;99762.50;;;23.35;37.66
18569;BME280;14780;48.316;-1.050;2022-07-15T01:54:18;99763.84;;;23.32;37.66
18569;BME280;14780;48.316;-1.050;2022-07-15T01:57:02;99755.38;;;23.33;37.66
18569;BME280;14780;48.316;-1.050;2022-07-15T01:59:47;99748.28;;;23.33;37.61
18569;BME280;14780;48.316;-1.050;2022-07-15T02:02:32;99741.72;;;23.33;37.72
18569;BME280;14780;48.316;-1.050;2022-07-15T02:05:16;99735.44;;;23.33;37.65
18569;BME280;14780;48.316;-1.050;2022-07-15T02:08:02;99734.88;;;23.31;37.61
18569;BME280;14780;48.316;-1.050;2022-07-15T02:10:46;99734.28;;;23.29;37.68
18569;BME280;14780;48.316;-1.050;2022-07-15T02:13:31;99741.91;;;23.27;37.74
18569;BME280;14780;48.316;-1.050;2022-07-15T02:16:16;99737.78;;;23.25;37.68
18569;BME280;14780;48.316;-1.050;2022-07-15T02:19:01;99737.22;;;23.23;37.80
18569;BME280;14780;48.316;-1.050;2022-07-15T02:21:49;99730.91;;;23.22;37.60
18569;BME280;14780;48.316;-1.050;2022-07-15T02:24:33;99736.06;;;23.19;37.81
18569;BME280;14780;48.316;-1.050;2022-07-15T02:27:18;99732.75;;;23.17;37.72
18569;BME280;14780;48.316;-1.050;2022-07-15T02:30:03;99729.22;;;23.16;37.77
18569;BME280;14780;48.316;-1.050;2022-07-15T02:32:48;99731.59;;;23.13;37.84
18569;BME280;14780;48.316;-1.050;2022-07-15T02:35:33;99729.91;;;23.12;37.95
18569;BME280;14780;48.316;-1.050;2022-07-15T02:38:19;99730.44;;;23.09;37.95
18569;BME280;14780;48.316;-1.050;2022-07-15T02:41:05;99722.81;;;23.11;38.00
18569;BME280;14780;48.316;-1.050;2022-07-15T02:43:51;99731.00;;;23.11;37.94
18569;BME280;14780;48.316;-1.050;2022-07-15T02:46:36;99740.50;;;23.08;38.13
18569;BME280;14780;48.316;-1.050;2022-07-15T02:49:21;99733.09;;;23.04;38.31
18569;BME280;14780;48.316;-1.050;2022-07-15T02:52:07;99735.81;;;23.04;38.14
18569;BME280;14780;48.316;-1.050;2022-07-15T02:54:52;99741.56;;;23.02;38.21
18569;BME280;14780;48.316;-1.050;2022-07-15T02:57:37;99740.72;;;23.02;38.15
18569;BME280;14780;48.316;-1.050;2022-07-15T03:00:22;99741.72;;;22.96;38.36
18569;BME280;14780;48.316;-1.050;2022-07-15T03:03:07;99746.84;;;22.92;38.60
18569;BME280;14780;48.316;-1.050;2022-07-15T03:05:52;99748.16;;;22.90;38.52
18569;BME280;14780;48.316;-1.050;2022-07-15T03:08:37;99750.31;;;22.88;38.73
18569;BME280;14780;48.316;-1.050;2022-07-15T03:11:21;99741.06;;;22.89;38.69
18569;BME280;14780;48.316;-1.050;2022-07-15T03:14:06;99749.81;;;22.91;38.68
18569;BME280;14780;48.316;-1.050;2022-07-15T03:16:51;99752.53;;;22.91;38.76
18569;BME280;14780;48.316;-1.050;2022-07-15T03:19:35;99750.09;;;22.89;38.76
18569;BME280;14780;48.316;-1.050;2022-07-15T03:22:20;99757.66;;;22.87;38.88
18569;BME280;14780;48.316;-1.050;2022-07-15T03:25:06;99760.09;;;22.84;39.02
18569;BME280;14780;48.316;-1.050;2022-07-15T03:27:51;99764.38;;;22.80;39.24
18569;BME280;14780;48.316;-1.050;2022-07-15T03:30:36;99752.56;;;22.74;39.31
18569;BME280;14780;48.316;-1.050;2022-07-15T03:33:21;99756.88;;;22.70;39.61
18569;BME280;14780;48.316;-1.050;2022-07-15T03:36:06;99754.13;;;22.70;39.63
18569;BME280;14780;48.316;-1.050;2022-07-15T03:38:50;99757.44;;;22.72;39.45
18569;BME280;14780;48.316;-1.050;2022-07-15T03:41:36;99767.78;;;22.70;39.73
18569;BME280;14780;48.316;-1.050;2022-07-15T03:44:21;99757.84;;;22.64;39.84
18569;BME280;14780;48.316;-1.050;2022-07-15T03:47:05;99764.63;;;22.62;40.00
18569;BME280;14780;48.316;-1.050;2022-07-15T03:49:50;99765.69;;;22.61;39.97
18569;BME280;14780;48.316;-1.050;2022-07-15T03:52:35;99772.00;;;22.61;39.87
18569;BME280;14780;48.316;-1.050;2022-07-15T03:55:20;99766.53;;;22.61;39.96
18569;BME280;14780;48.316;-1.050;2022-07-15T03:58:05;99760.19;;;22.56;40.16
18569;BME280;14780;48.316;-1.050;2022-07-15T04:00:50;99760.19;;;22.56;40.13
18569;BME280;14780;48.316;-1.050;2022-07-15T04:03:35;99766.69;;;22.55;40.31
18569;BME280;14780;48.316;-1.050;2022-07-15T04:06:21;99761.84;;;22.57;40.29
18569;BME280;14780;48.316;-1.050;2022-07-15T04:09:06;99755.31;;;22.58;40.37
18569;BME280;14780;48.316;-1.050;2022-07-15T04:11:51;99750.31;;;22.55;40.67
18569;BME280;14780;48.316;-1.050;2022-07-15T04:14:36;99755.53;;;22.56;40.59
18569;BME280;14780;48.316;-1.050;2022-07-15T04:17:21;99761.56;;;22.58;40.64
18569;BME280;14780;48.316;-1.050;2022-07-15T04:20:06;99762.91;;;22.56;40.77
18569;BME280;14780;48.316;-1.050;2022-07-15T04:22:51;99772.47;;;22.58;40.84
18569;BME280;14780;48.316;-1.050;2022-07-15T04:25:36;99772.75;;;22.57;40.96
18569;BME280;14780;48.316;-1.050;2022-07-15T04:28:21;99780.41;;;22.60;41.06
18569;BME280;14780;48.316;-1.050;2022-07-15T04:31:07;99785.63;;;22.61;41.06
18569;BME280;14780;48.316;-1.050;2022-07-15T04:33:51;99782.56;;;22.58;41.23
18569;BME280;14780;48.316;-1.050;2022-07-15T04:36:36;99778.19;;;22.57;41.40
18569;BME280;14780;48.316;-1.050;2022-07-15T04:39:20;99778.78;;;22.59;41.41
18569;BME280;14780;48.316;-1.050;2022-07-15T04:42:05;99778.94;;;22.52;41.59
18569;BME280;14780;48.316;-1.050;2022-07-15T04:44:50;99790.44;;;22.54;41.62
18569;BME280;14780;48.316;-1.050;2022-07-15T04:47:35;99795.88;;;22.54;41.78
18569;BME280;14780;48.316;-1.050;2022-07-15T04:50:20;99802.88;;;22.50;41.97
18569;BME280;14780;48.316;-1.050;2022-07-15T04:53:24;99811.91;;;22.51;41.96
18569;BME280;14780;48.316;-1.050;2022-07-15T04:56:09;99805.38;;;22.52;41.93
18569;BME280;14780;48.316;-1.050;2022-07-15T04:58:54;99806.78;;;22.54;41.78
18569;BME280;14780;48.316;-1.050;2022-07-15T05:01:38;99804.28;;;22.53;42.01
18569;BME280;14780;48.316;-1.050;2022-07-15T05:04:23;99809.50;;;22.54;41.85
18569;BME280;14780;48.316;-1.050;2022-07-15T05:07:08;99814.13;;;22.54;42.15
18569;BME280;14780;48.316;-1.050;2022-07-15T05:09:53;99810.94;;;22.57;41.94
18569;BME280;14780;48.316;-1.050;2022-07-15T05:12:38;99820.75;;;22.58;42.11
18569;BME280;14780;48.316;-1.050;2022-07-15T05:15:24;99821.22;;;22.55;42.20
18569;BME280;14780;48.316;-1.050;2022-07-15T05:18:08;99819.09;;;22.57;42.26
18569;BME280;14780;48.316;-1.050;2022-07-15T05:20:53;99816.94;;;22.59;42.01
18569;BME280;14780;48.316;-1.050;2022-07-15T05:23:38;99818.59;;;22.60;42.25
18569;BME280;14780;48.316;-1.050;2022-07-15T05:26:24;99821.09;;;22.61;42.22
18569;BME280;14780;48.316;-1.050;2022-07-15T05:29:09;99829.03;;;22.63;42.17
18569;BME280;14780;48.316;-1.050;2022-07-15T05:31:53;99820.59;;;22.64;42.31
18569;BME280;14780;48.316;-1.050;2022-07-15T05:34:38;99823.09;;;22.66;42.23
18569;BME280;14780;48.316;-1.050;2022-07-15T05:37:23;99813.81;;;22.67;42.35
18569;BME280;14780;48.316;-1.050;2022-07-15T05:40:09;99815.00;;;22.71;42.41
18569;BME280;14780;48.316;-1.050;2022-07-15T05:42:54;99810.84;;;22.68;42.61
18569;BME280;14780;48.316;-1.050;2022-07-15T05:45:38;99817.44;;;22.72;42.57
18569;BME280;14780;48.316;-1.050;2022-07-15T05:48:23;99823.75;;;22.73;42.59
18569;BME280;14780;48.316;-1.050;2022-07-15T05:51:08;99830.84;;;22.74;42.66
18569;BME280;14780;48.316;-1.050;2022-07-15T05:53:53;99828.47;;;22.77;42.67
18569;BME280;14780;48.316;-1.050;2022-07-15T05:56:38;99833.69;;;22.79;42.60
18569;BME280;14780;48.316;-1.050;2022-07-15T05:59:23;99835.31;;;22.80;42.70
18569;BME280;14780;48.316;-1.050;2022-07-15T06:02:08;99834.81;;;22.83;42.58
18569;BME280;14780;48.316;-1.050;2022-07-15T06:04:53;99834.34;;;22.86;42.59
18569;BME280;14780;48.316;-1.050;2022-07-15T06:07:38;99836.81;;;22.87;42.70
18569;BME280;14780;48.316;-1.050;2022-07-15T06:10:23;99824.00;;;22.88;42.72
18569;BME280;14780;48.316;-1.050;2022-07-15T06:13:08;99830.63;;;22.92;42.63
18569;BME280;14780;48.316;-1.050;2022-07-15T06:15:52;99825.75;;;22.94;42.82
18569;BME280;14780;48.316;-1.050;2022-07-15T06:18:37;99815.63;;;22.94;42.75
18569;BME280;14780;48.316;-1.050;2022-07-15T06:21:23;99828.22;;;22.95;42.93
18569;BME280;14780;48.316;-1.050;2022-07-15T06:24:07;99816.22;;;22.96;42.99
18569;BME280;14780;48.316;-1.050;2022-07-15T06:26:52;99827.72;;;22.98;42.86
18569;BME280;14780;48.316;-1.050;2022-07-15T06:29:37;99811.59;;;22.97;43.02
18569;BME280;14780;48.316;-1.050;2022-07-15T06:32:21;99810.59;;;23.03;42.95
18569;BME280;14780;48.316;-1.050;2022-07-15T06:35:07;99806.88;;;23.09;42.90
18569;BME280;14780;48.316;-1.050;2022-07-15T06:37:52;99810.78;;;23.13;42.84
18569;BME280;14780;48.316;-1.050;2022-07-15T06:40:36;99809.69;;;23.14;42.94
18569;BME280;14780;48.316;-1.050;2022-07-15T06:43:21;99807.03;;;23.19;42.88
18569;BME280;14780;48.316;-1.050;2022-07-15T06:46:05;99809.28;;;23.22;42.90
18569;BME280;14780;48.316;-1.050;2022-07-15T06:48:50;99814.81;;;23.27;42.91
18569;BME280;14780;48.316;-1.050;2022-07-15T06:51:35;99804.47;;;23.29;42.89
18569;BME280;14780;48.316;-1.050;2022-07-15T06:54:20;99800.16;;;23.33;42.95
18569;BME280;14780;48.316;-1.050;2022-07-15T06:57:05;99817.13;;;23.35;43.06
18569;BME280;14780;48.316;-1.050;2022-07-15T06:59:50;99811.16;;;23.38;42.94
18569;BME280;14780;48.316;-1.050;2022-07-15T07:02:34;99810.63;;;23.40;42.99
18569;BME280;14780;48.316;-1.050;2022-07-15T07:05:19;99811.56;;;23.46;42.99
18569;BME280;14780;48.316;-1.050;2022-07-15T07:08:04;99813.78;;;23.49;42.90
18569;BME280;14780;48.316;-1.050;2022-07-15T07:10:49;99808.63;;;23.52;42.96
18569;BME280;14780;48.316;-1.050;2022-07-15T07:13:34;99807.06;;;23.56;42.85
18569;BME280;14780;48.316;-1.050;2022-07-15T07:16:19;99813.09;;;23.58;42.83
18569;BME280;14780;48.316;-1.050;2022-07-15T07:19:03;99810.69;;;23.62;42.77
18569;BME280;14780;48.316;-1.050;2022-07-15T07:21:48;99795.69;;;23.64;42.69
18569;BME280;14780;48.316;-1.050;2022-07-15T07:24:33;99791.34;;;23.68;42.73
18569;BME280;14780;48.316;-1.050;2022-07-15T07:27:18;99797.97;;;23.72;42.68
18569;BME280;14780;48.316;-1.050;2022-07-15T07:30:03;99791.41;;;23.73;42.61
18569;BME280;14780;48.316;-1.050;2022-07-15T07:32:52;99786.78;;;23.74;42.47
18569;BME280;14780;48.316;-1.050;2022-07-15T07:35:36;99786.53;;;23.75;42.47
18569;BME280;14780;48.316;-1.050;2022-07-15T07:38:21;99785.44;;;23.76;42.45
18569;BME280;14780;48.316;-1.050;2022-07-15T07:41:05;99783.28;;;23.78;42.37
18569;BME280;14780;48.316;-1.050;2022-07-15T07:43:50;99773.50;;;23.82;42.39
18569;BME280;14780;48.316;-1.050;2022-07-15T07:46:35;99779.06;;;23.87;42.34
18569;BME280;14780;48.316;-1.050;2022-07-15T07:49:20;99776.88;;;23.89;42.33
18569;BME280;14780;48.316;-1.050;2022-07-15T07:52:06;99770.94;;;23.92;42.16
18569;BME280;14780;48.316;-1.050;2022-07-15T07:54:50;99771.50;;;23.94;41.98
18569;BME280;14780;48.316;-1.050;2022-07-15T07:57:43;99775.34;;;23.98;42.11
18569;BME280;14780;48.316;-1.050;2022-07-15T08:00:30;99774.28;;;23.99;42.10
18569;BME280;14780;48.316;-1.050;2022-07-15T08:03:15;99775.97;;;24.05;42.00
18569;BME280;14780;48.316;-1.050;2022-07-15T08:06:00;99782.59;;;24.09;41.94
18569;BME280;14780;48.316;-1.050;2022-07-15T08:08:45;99791.34;;;24.11;41.97
18569;BME280;14780;48.316;-1.050;2022-07-15T08:11:30;99791.16;;;24.18;41.93
18569;BME280;14780;48.316;-1.050;2022-07-15T08:14:14;99790.38;;;24.22;41.96
18569;BME280;14780;48.316;-1.050;2022-07-15T08:16:59;99788.28;;;24.29;41.86
18569;BME280;14780;48.316;-1.050;2022-07-15T08:19:44;99785.56;;;24.34;41.94
18569;BME280;14780;48.316;-1.050;2022-07-15T08:22:29;99788.38;;;24.39;41.91
18569;BME280;14780;48.316;-1.050;2022-07-15T08:25:15;99785.16;;;24.47;41.91
18569;BME280;14780;48.316;-1.050;2022-07-15T08:28:00;99778.66;;;24.53;42.05
18569;BME280;14780;48.316;-1.050;2022-07-15T08:30:46;99785.31;;;24.62;42.01
18569;BME280;14780;48.316;-1.050;2022-07-15T08:33:30;99787.00;;;24.68;41.94
18569;BME280;14780;48.316;-1.050;2022-07-15T08:36:15;99785.97;;;24.74;41.99
18569;BME280;14780;48.316;-1.050;2022-07-15T08:39:00;99785.75;;;24.81;41.86
18569;BME280;14780;48.316;-1.050;2022-07-15T08:41:45;99786.63;;;24.86;41.86
18569;BME280;14780;48.316;-1.050;2022-07-15T08:44:30;99787.75;;;24.90;41.85
18569;BME280;14780;48.316;-1.050;2022-07-15T08:47:15;99786.69;;;24.96;41.88
18569;BME280;14780;48.316;-1.050;2022-07-15T08:50:01;99787.53;;;25.02;41.86
18569;BME280;14780;48.316;-1.050;2022-07-15T08:52:47;99783.22;;;25.06;41.82
18569;BME280;14780;48.316;-1.050;2022-07-15T08:55:32;99784.31;;;25.10;41.80
18569;BME280;14780;48.316;-1.050;2022-07-15T08:58:17;99780.50;;;25.11;41.92
18569;BME280;14780;48.316;-1.050;2022-07-15T09:01:02;99778.63;;;25.16;41.82
18569;BME280;14780;48.316;-1.050;2022-07-15T09:03:47;99772.59;;;25.19;41.86
18569;BME280;14780;48.316;-1.050;2022-07-15T09:06:38;99768.00;;;25.25;41.61
18569;BME280;14780;48.316;-1.050;2022-07-15T09:09:29;99777.06;;;25.25;41.72
18569;BME280;14780;48.316;-1.050;2022-07-15T09:12:15;99767.75;;;25.26;41.78
18569;BME280;14780;48.316;-1.050;2022-07-15T09:14:59;99764.75;;;25.28;41.63
18569;BME280;14780;48.316;-1.050;2022-07-15T09:17:44;99773.53;;;25.30;41.81
18569;BME280;14780;48.316;-1.050;2022-07-15T09:20:30;99777.66;;;25.32;41.58
18569;BME280;14780;48.316;-1.050;2022-07-15T09:23:18;99775.47;;;25.34;41.59
18569;BME280;14780;48.316;-1.050;2022-07-15T09:26:31;99779.66;;;25.47;41.45
18569;BME280;14780;48.316;-1.050;2022-07-15T09:29:17;99768.94;;;25.40;41.52
18569;BME280;14780;48.316;-1.050;2022-07-15T09:32:21;99770.56;;;25.41;41.48
18569;BME280;14780;48.316;-1.050;2022-07-15T09:35:28;99765.38;;;25.45;41.41
18569;BME280;14780;48.316;-1.050;2022-07-15T09:39:01;99772.03;;;25.54;41.38
18569;BME280;14780;48.316;-1.050;2022-07-15T09:41:47;99772.50;;;25.46;41.44
18569;BME280;14780;48.316;-1.050;2022-07-15T09:44:32;99769.50;;;25.47;41.33
18569;BME280;14780;48.316;-1.050;2022-07-15T09:47:20;99774.75;;;25.49;41.45
18569;BME280;14780;48.316;-1.050;2022-07-15T09:50:07;99770.66;;;25.51;41.53
18569;BME280;14780;48.316;-1.050;2022-07-15T09:52:52;99775.56;;;25.54;41.39
18569;BME280;14780;48.316;-1.050;2022-07-15T09:55:36;99771.50;;;25.57;41.35
18569;BME280;14780;48.316;-1.050;2022-07-15T09:58:21;99774.22;;;25.57;41.38
18569;BME280;14780;48.316;-1.050;2022-07-15T10:01:08;99769.84;;;25.61;41.31
18569;BME280;14780;48.316;-1.050;2022-07-15T10:03:53;99771.78;;;25.60;41.15
18569;BME280;14780;48.316;-1.050;2022-07-15T10:06:38;99770.69;;;25.61;41.13
18569;BME280;14780;48.316;-1.050;2022-07-15T10:09:28;99775.63;;;25.64;41.27
18569;BME280;14780;48.316;-1.050;2022-07-15T10:12:19;99775.38;;;25.71;41.12
18569;BME280;14780;48.316;-1.050;2022-07-15T10:16:10;99787.72;;;25.68;41.23
18569;BME280;14780;48.316;-1.050;2022-07-15T10:21:45;99785.03;;;25.83;40.94
18569;BME280;14780;48.316;-1.050;2022-07-15T10:30:44;99779.81;;;25.77;40.97
18569;BME280;14780;48.316;-1.050;2022-07-15T10:33:29;99773.22;;;25.78;40.96
18569;BME280;14780;48.316;-1.050;2022-07-15T10:36:15;99767.75;;;25.78;41.03
18569;BME280;14780;48.316;-1.050;2022-07-15T10:39:03;99776.81;;;25.83;40.88
18569;BME280;14780;48.316;-1.050;2022-07-15T10:42:01;99780.38;;;25.84;40.96
18569;BME280;14780;48.316;-1.050;2022-07-15T10:47:44;99775.19;;;25.87;40.81
18569;BME280;14780;48.316;-1.050;2022-07-15T10:50:39;99769.72;;;25.92;40.77
18569;BME280;14780;48.316;-1.050;2022-07-15T10:53:26;99763.69;;;25.90;40.82
18569;BME280;14780;48.316;-1.050;2022-07-15T10:59:19;99759.84;;;25.91;40.71
18569;BME280;14780;48.316;-1.050;2022-07-15T11:04:50;99770.31;;;25.94;40.78
18569;BME280;14780;48.316;-1.050;2022-07-15T11:07:35;99767.00;;;25.97;40.79
18569;BME280;14780;48.316;-1.050;2022-07-15T11:10:23;99766.47;;;25.95;40.44
18569;BME280;14780;48.316;-1.050;2022-07-15T11:13:08;99760.44;;;25.98;40.59
18569;BME280;14780;48.316;-1.050;2022-07-15T11:15:59;99771.97;;;26.05;40.58
18569;BME280;14780;48.316;-1.050;2022-07-15T11:18:53;99767.56;;;26.04;40.52
18569;BME280;14780;48.316;-1.050;2022-07-15T11:21:39;99767.28;;;26.01;40.71
18569;BME280;14780;48.316;-1.050;2022-07-15T11:24:35;99770.31;;;26.04;40.63
18569;BME280;14780;48.316;-1.050;2022-07-15T11:27:21;99757.72;;;26.03;40.74
18569;BME280;14780;48.316;-1.050;2022-07-15T11:30:06;99762.94;;;26.05;40.54
18569;BME280;14780;48.316;-1.050;2022-07-15T11:32:56;99763.22;;;26.08;40.42
18569;BME280;14780;48.316;-1.050;2022-07-15T11:35:52;99763.78;;;26.15;40.35
18569;BME280;14780;48.316;-1.050;2022-07-15T11:38:39;99762.63;;;26.06;40.55
18569;BME280;14780;48.316;-1.050;2022-07-15T11:41:24;99761.53;;;26.07;40.33
18569;BME280;14780;48.316;-1.050;2022-07-15T11:44:28;99754.97;;;26.08;40.25
18569;BME280;14780;48.316;-1.050;2022-07-15T11:47:17;99764.84;;;26.09;40.33
18569;BME280;14780;48.316;-1.050;2022-07-15T11:50:06;99756.91;;;26.13;40.00
18569;BME280;14780;48.316;-1.050;2022-07-15T11:52:55;99763.22;;;26.18;39.99
18569;BME280;14780;48.316;-1.050;2022-07-15T11:55:58;99755.56;;;26.25;39.73
18569;BME280;14780;48.316;-1.050;2022-07-15T11:58:46;99758.56;;;26.19;40.12
18569;BME280;14780;48.316;-1.050;2022-07-15T12:01:34;99756.38;;;26.21;40.17
18569;BME280;14780;48.316;-1.050;2022-07-15T12:04:26;99749.50;;;26.28;39.88
18569;BME280;14780;48.316;-1.050;2022-07-15T12:07:11;99748.44;;;26.24;39.98
18569;BME280;14780;48.316;-1.050;2022-07-15T12:09:56;99751.44;;;26.23;40.07
18569;BME280;14780;48.316;-1.050;2022-07-15T12:13:01;99745.41;;;26.36;39.73
18569;BME280;14780;48.316;-1.050;2022-07-15T12:15:49;99753.09;;;26.29;40.04
18569;BME280;14780;48.316;-1.050;2022-07-15T12:18:34;99750.63;;;26.32;40.14
18569;BME280;14780;48.316;-1.050;2022-07-15T12:21:20;99748.97;;;26.36;40.13
18569;BME280;14780;48.316;-1.050;2022-07-15T12:24:11;99746.25;;;26.41;40.10
18569;BME280;14780;48.316;-1.050;2022-07-15T12:26:58;99743.22;;;26.43;40.15
18569;BME280;14780;48.316;-1.050;2022-07-15T12:29:43;99750.69;;;26.52;40.10
18569;BME280;14780;48.316;-1.050;2022-07-15T12:32:28;99750.41;;;26.59;40.28
18569;BME280;14780;48.316;-1.050;2022-07-15T12:35:15;99761.94;;;26.66;40.02
18569;BME280;14780;48.316;-1.050;2022-07-15T12:37:59;99755.06;;;26.73;40.17
18569;BME280;14780;48.316;-1.050;2022-07-15T12:40:44;99753.16;;;26.79;39.95
18569;BME280;14780;48.316;-1.050;2022-07-15T12:49:47;99752.03;;;27.00;39.65
18569;BME280;14780;48.316;-1.050;2022-07-15T12:52:39;99746.81;;;27.03;39.84
18569;BME280;14780;48.316;-1.050;2022-07-15T12:55:27;99752.28;;;27.08;39.83
18569;BME280;14780;48.316;-1.050;2022-07-15T12:58:15;99755.00;;;27.13;39.91
18569;BME280;14780;48.316;-1.050;2022-07-15T13:01:11;99748.97;;;27.31;39.40
18569;BME280;14780;48.316;-1.050;2022-07-15T13:03:57;99744.00;;;27.28;39.47
18569;BME280;14780;48.316;-1.050;2022-07-15T13:06:41;99739.63;;;27.32;39.43
18569;BME280;14780;48.316;-1.050;2022-07-15T13:09:26;99733.00;;;27.38;39.45
18569;BME280;14780;48.316;-1.050;2022-07-15T13:12:12;99741.75;;;27.50;39.30
18569;BME280;14780;48.316;-1.050;2022-07-15T13:14:57;99743.09;;;27.58;39.36
18569;BME280;14780;48.316;-1.050;2022-07-15T13:17:41;99733.16;;;27.67;39.33
18569;BME280;14780;48.316;-1.050;2022-07-15T13:20:26;99730.66;;;27.70;39.13
18569;BME280;14780;48.316;-1.050;2022-07-15T13:23:12;99730.09;;;27.73;39.13
18569;BME280;14780;48.316;-1.050;2022-07-15T13:25:56;99726.81;;;27.81;38.99
18569;BME280;14780;48.316;-1.050;2022-07-15T13:28:41;99732.56;;;27.85;38.71
18569;BME280;14780;48.316;-1.050;2022-07-15T13:31:26;99725.31;;;27.99;38.79
18569;BME280;14780;48.316;-1.050;2022-07-15T13:34:11;99727.50;;;28.07;38.42
18569;BME280;14780;48.316;-1.050;2022-07-15T13:36:56;99738.13;;;28.18;38.28
18569;BME280;14780;48.316;-1.050;2022-07-15T13:39:40;99738.59;;;28.35;38.22
18569;BME280;14780;48.316;-1.050;2022-07-15T13:42:25;99737.34;;;28.51;38.09
18569;BME280;14780;48.316;-1.050;2022-07-15T13:45:11;99738.59;;;28.69;37.74
18569;BME280;14780;48.316;-1.050;2022-07-15T13:47:56;99738.09;;;28.95;37.45
18569;BME280;14780;48.316;-1.050;2022-07-15T13:50:41;99733.91;;;29.02;37.38
18569;BME280;14780;48.316;-1.050;2022-07-15T13:53:45;99732.63;;;29.18;37.16
18569;BME280;14780;48.316;-1.050;2022-07-15T13:56:30;99727.94;;;29.42;36.76
18569;BME280;14780;48.316;-1.050;2022-07-15T13:59:14;99726.75;;;29.48;36.78
18569;BME280;14780;48.316;-1.050;2022-07-15T14:01:59;99724.69;;;29.64;36.50
18569;BME280;14780;48.316;-1.050;2022-07-15T14:04:43;99723.75;;;29.92;36.14
18569;BME280;14780;48.316;-1.050;2022-07-15T14:07:28;99729.94;;;30.02;35.80
18569;BME280;14780;48.316;-1.050;2022-07-15T14:10:13;99728.00;;;30.40;35.39
18569;BME280;14780;48.316;-1.050;2022-07-15T14:12:58;99730.19;;;30.43;35.46
18569;BME280;14780;48.316;-1.050;2022-07-15T14:15:44;99733.53;;;30.90;34.73
18569;BME280;14780;48.316;-1.050;2022-07-15T14:18:28;99746.72;;;30.80;34.86
18569;BME280;14780;48.316;-1.050;2022-07-15T14:21:30;99737.94;;;31.37;34.04
18569;BME280;14780;48.316;-1.050;2022-07-15T14:24:15;99729.03;;;31.67;33.31
18569;BME280;14780;48.316;-1.050;2022-07-15T14:27:00;99740.09;;;32.43;33.17
18569;BME280;14780;48.316;-1.050;2022-07-15T14:29:45;99739.41;;;33.03;31.98
18569;BME280;14780;48.316;-1.050;2022-07-15T14:32:30;99739.72;;;32.36;32.01
18569;BME280;14780;48.316;-1.050;2022-07-15T14:35:15;99741.63;;;32.71;32.28
18569;BME280;14780;48.316;-1.050;2022-07-15T14:38:00;99742.28;;;33.51;31.20
18569;BME280;14780;48.316;-1.050;2022-07-15T14:40:44;99743.78;;;34.21;30.63
18569;BME280;14780;48.316;-1.050;2022-07-15T14:43:29;99739.88;;;34.48;29.47
18569;BME280;14780;48.316;-1.050;2022-07-15T14:46:13;99737.75;;;34.28;30.11
18569;BME280;14780;48.316;-1.050;2022-07-15T14:48:58;99725.56;;;33.12;30.62
18569;BME280;14780;48.316;-1.050;2022-07-15T14:51:43;99726.66;;;34.45;29.83
18569;BME280;14780;48.316;-1.050;2022-07-15T14:54:28;99731.59;;;35.19;29.19